sensor_id;sensor_type;location;lat;lon;timestamp;P1;durP1;ratioP1;P2;durP2;ratioP2
24739;SDS011;45234;48.148;17.128;2022-12-10T00:01:14;26.27;;;15.38;;
24739;SDS011;45234;48.148;17.128;2022-12-10T00:03:43;24.90;;;15.88;;
24739;SDS011;45234;48.148;17.128;2022-12-10T00:06:11;26.58;;;16.30;;
24739;SDS011;45234;48.148;17.128;2022-12-10T00:08:40;28.95;;;18.80;;
24739;SDS011;45234;48.148;17.128;2022-12-10T00:11:08;28.85;;;17.10;;
24739;SDS011;45234;48.148;17.128;2022-12-10T00:13:36;27.83;;;17.50;;
24739;SDS011;45234;48.148;17.128;2022-12-10T00:16:04;32.00;;;19.98;;
24739;SDS011;45234;48.148;17.128;2022-12-10T00:18:33;28.70;;;18.67;;
24739;SDS011;45234;48.148;17.128;2022-12-10T00:21:04;30.13;;;19.27;;
24739;SDS011;45234;48.148;17.128;2022-12-10T00:23:32;31.77;;;20.60;;
24739;SDS011;45234;48.148;17.128;2022-12-10T00:26:06;29.88;;;19.45;;
24739;SDS011;45234;48.148;17.128;2022-12-10T00:28:36;25.77;;;16.73;;
24739;SDS011;45234;48.148;17.128;2022-12-10T00:31:08;23.95;;;16.88;;
24739;SDS011;45234;48.148;17.128;2022-12-10T00:33:39;27.42;;;17.23;;
24739;SDS011;45234;48.148;17.128;2022-12-10T00:36:08;25.48;;;15.82;;
24739;SDS011;45234;48.148;17.128;2022-12-10T00:38:36;26.30;;;17.02;;
24739;SDS011;45234;48.148;17.128;2022-12-10T00:41:04;22.70;;;17.00;;
24739;SDS011;45234;48.148;17.128;2022-12-10T00:43:31;27.73;;;18.10;;
24739;SDS011;45234;48.148;17.128;2022-12-10T00:45:58;27.40;;;18.35;;
24739;SDS011;45234;48.148;17.128;2022-12-10T00:48:25;26.52;;;17.92;;
24739;SDS011;45234;48.148;17.128;2022-12-10T00:51:00;25.40;;;17.23;;
24739;SDS011;45234;48.148;17.128;2022-12-10T00:53:32;24.95;;;17.08;;
24739;SDS011;45234;48.148;17.128;2022-12-10T00:56:00;22.90;;;16.27;;
24739;SDS011;45234;48.148;17.128;2022-12-10T00:58:28;24.13;;;17.20;;
24739;SDS011;45234;48.148;17.128;2022-12-10T01:01:57;25.50;;;17.15;;
24739;SDS011;45234;48.148;17.128;2022-12-10T01:04:04;24.25;;;16.73;;
24739;SDS011;45234;48.148;17.128;2022-12-10T01:06:40;26.10;;;17.90;;
24739;SDS011;45234;48.148;17.128;2022-12-10T01:09:14;26.42;;;18.05;;
24739;SDS011;45234;48.148;17.128;2022-12-10T01:11:43;24.85;;;17.50;;
24739;SDS011;45234;48.148;17.128;2022-12-10T01:14:12;26.33;;;18.38;;
24739;SDS011;45234;48.148;17.128;2022-12-10T01:16:46;25.45;;;17.58;;
24739;SDS011;45234;48.148;17.128;2022-12-10T01:19:15;26.15;;;17.63;;
24739;SDS011;45234;48.148;17.128;2022-12-10T01:21:41;23.90;;;17.17;;
24739;SDS011;45234;48.148;17.128;2022-12-10T01:24:08;25.50;;;17.25;;
24739;SDS011;45234;48.148;17.128;2022-12-10T01:26:35;25.30;;;17.95;;
24739;SDS011;45234;48.148;17.128;2022-12-10T01:29:03;27.13;;;18.77;;
24739;SDS011;45234;48.148;17.128;2022-12-10T01:31:31;27.23;;;19.20;;
24739;SDS011;45234;48.148;17.128;2022-12-10T01:34:00;27.33;;;18.20;;
24739;SDS011;45234;48.148;17.128;2022-12-10T01:36:28;28.30;;;19.17;;
24739;SDS011;45234;48.148;17.128;2022-12-10T01:38:58;28.80;;;19.80;;
24739;SDS011;45234;48.148;17.128;2022-12-10T01:41:29;25.88;;;18.35;;
24739;SDS011;45234;48.148;17.128;2022-12-10T01:46:38;28.85;;;19.52;;
24739;SDS011;45234;48.148;17.128;2022-12-10T01:49:15;29.52;;;20.25;;
24739;SDS011;45234;48.148;17.128;2022-12-10T01:51:43;32.08;;;20.80;;
24739;SDS011;45234;48.148;17.128;2022-12-10T01:54:14;28.08;;;19.23;;
24739;SDS011;45234;48.148;17.128;2022-12-10T01:56:45;28.77;;;20.23;;
24739;SDS011;45234;48.148;17.128;2022-12-10T01:59:15;29.30;;;20.23;;
24739;SDS011;45234;48.148;17.128;2022-12-10T02:09:49;28.75;;;19.15;;
24739;SDS011;45234;48.148;17.128;2022-12-10T02:15:27;30.30;;;20.92;;
24739;SDS011;45234;48.148;17.128;2022-12-10T02:18:07;29.17;;;20.27;;
24739;SDS011;45234;48.148;17.128;2022-12-10T02:20:49;27.90;;;19.73;;
24739;SDS011;45234;48.148;17.128;2022-12-10T02:23:30;27.45;;;19.95;;
24739;SDS011;45234;48.148;17.128;2022-12-10T02:26:15;28.33;;;20.35;;
24739;SDS011;45234;48.148;17.128;2022-12-10T02:29:12;28.10;;;19.65;;
24739;SDS011;45234;48.148;17.128;2022-12-10T02:31:48;28.83;;;19.33;;
24739;SDS011;45234;48.148;17.128;2022-12-10T02:34:43;26.25;;;17.63;;
24739;SDS011;45234;48.148;17.128;2022-12-10T02:37:33;25.45;;;18.38;;
24739;SDS011;45234;48.148;17.128;2022-12-10T02:40:07;25.75;;;17.95;;
24739;SDS011;45234;48.148;17.128;2022-12-10T02:42:42;27.73;;;18.45;;
24739;SDS011;45234;48.148;17.128;2022-12-10T02:45:15;26.83;;;18.85;;
24739;SDS011;45234;48.148;17.128;2022-12-10T02:47:43;26.02;;;17.20;;
24739;SDS011;45234;48.148;17.128;2022-12-10T02:50:14;26.10;;;17.75;;
24739;SDS011;45234;48.148;17.128;2022-12-10T02:52:43;27.83;;;17.98;;
24739;SDS011;45234;48.148;17.128;2022-12-10T02:55:11;27.05;;;17.95;;
24739;SDS011;45234;48.148;17.128;2022-12-10T03:00:41;27.13;;;18.70;;
24739;SDS011;45234;48.148;17.128;2022-12-10T03:03:22;26.70;;;18.70;;
24739;SDS011;45234;48.148;17.128;2022-12-10T03:06:03;26.95;;;18.15;;
24739;SDS011;45234;48.148;17.128;2022-12-10T03:08:44;26.77;;;18.20;;
24739;SDS011;45234;48.148;17.128;2022-12-10T03:11:22;28.60;;;18.58;;
24739;SDS011;45234;48.148;17.128;2022-12-10T03:16:31;26.10;;;17.88;;
24739;SDS011;45234;48.148;17.128;2022-12-10T03:19:03;27.38;;;18.63;;
24739;SDS011;45234;48.148;17.128;2022-12-10T03:21:32;26.85;;;17.55;;
24739;SDS011;45234;48.148;17.128;2022-12-10T03:24:05;24.60;;;16.85;;
24739;SDS011;45234;48.148;17.128;2022-12-10T03:26:34;26.02;;;17.65;;
24739;SDS011;45234;48.148;17.128;2022-12-10T03:29:03;26.17;;;17.67;;
24739;SDS011;45234;48.148;17.128;2022-12-10T03:31:37;26.52;;;17.10;;
24739;SDS011;45234;48.148;17.128;2022-12-10T03:34:05;27.83;;;17.02;;
24739;SDS011;45234;48.148;17.128;2022-12-10T03:36:35;25.45;;;17.10;;
24739;SDS011;45234;48.148;17.128;2022-12-10T03:39:03;26.30;;;16.92;;
24739;SDS011;45234;48.148;17.128;2022-12-10T03:41:31;24.38;;;17.20;;
24739;SDS011;45234;48.148;17.128;2022-12-10T03:43:58;26.08;;;17.25;;
24739;SDS011;45234;48.148;17.128;2022-12-10T03:46:27;25.45;;;16.45;;
24739;SDS011;45234;48.148;17.128;2022-12-10T03:48:55;25.15;;;17.63;;
24739;SDS011;45234;48.148;17.128;2022-12-10T03:51:23;27.02;;;18.17;;
24739;SDS011;45234;48.148;17.128;2022-12-10T03:53:49;27.63;;;17.73;;
24739;SDS011;45234;48.148;17.128;2022-12-10T03:56:17;31.92;;;19.35;;
24739;SDS011;45234;48.148;17.128;2022-12-10T03:58:45;27.30;;;17.92;;
24739;SDS011;45234;48.148;17.128;2022-12-10T04:01:13;26.63;;;17.52;;
24739;SDS011;45234;48.148;17.128;2022-12-10T04:03:41;28.42;;;19.38;;
24739;SDS011;45234;48.148;17.128;2022-12-10T04:06:12;28.40;;;18.05;;
24739;SDS011;45234;48.148;17.128;2022-12-10T04:08:40;29.67;;;19.00;;
24739;SDS011;45234;48.148;17.128;2022-12-10T04:11:08;29.40;;;18.45;;
24739;SDS011;45234;48.148;17.128;2022-12-10T04:13:37;27.92;;;17.42;;
24739;SDS011;45234;48.148;17.128;2022-12-10T04:16:23;31.42;;;20.67;;
24739;SDS011;45234;48.148;17.128;2022-12-10T04:19:03;32.03;;;19.20;;
24739;SDS011;45234;48.148;17.128;2022-12-10T04:21:35;28.58;;;18.55;;
24739;SDS011;45234;48.148;17.128;2022-12-10T04:24:23;30.65;;;20.25;;
24739;SDS011;45234;48.148;17.128;2022-12-10T04:27:11;28.33;;;18.83;;
24739;SDS011;45234;48.148;17.128;2022-12-10T04:29:42;26.27;;;17.20;;
24739;SDS011;45234;48.148;17.128;2022-12-10T04:32:08;31.33;;;18.73;;
24739;SDS011;45234;48.148;17.128;2022-12-10T04:34:35;27.65;;;17.95;;
24739;SDS011;45234;48.148;17.128;2022-12-10T04:37:02;26.38;;;17.77;;
24739;SDS011;45234;48.148;17.128;2022-12-10T04:39:29;28.17;;;18.40;;
24739;SDS011;45234;48.148;17.128;2022-12-10T04:41:57;26.58;;;17.10;;
24739;SDS011;45234;48.148;17.128;2022-12-10T04:44:26;25.23;;;17.17;;
24739;SDS011;45234;48.148;17.128;2022-12-10T04:46:53;26.85;;;16.02;;
24739;SDS011;45234;48.148;17.128;2022-12-10T04:49:20;23.98;;;15.48;;
24739;SDS011;45234;48.148;17.128;2022-12-10T04:51:48;21.35;;;13.60;;
24739;SDS011;45234;48.148;17.128;2022-12-10T04:54:15;21.25;;;13.80;;
24739;SDS011;45234;48.148;17.128;2022-12-10T04:56:42;22.00;;;14.90;;
24739;SDS011;45234;48.148;17.128;2022-12-10T04:59:11;20.80;;;13.95;;
24739;SDS011;45234;48.148;17.128;2022-12-10T05:01:38;22.85;;;14.27;;
24739;SDS011;45234;48.148;17.128;2022-12-10T05:04:06;23.15;;;14.63;;
24739;SDS011;45234;48.148;17.128;2022-12-10T05:06:33;22.60;;;13.85;;
24739;SDS011;45234;48.148;17.128;2022-12-10T05:09:00;22.48;;;13.88;;
24739;SDS011;45234;48.148;17.128;2022-12-10T05:11:29;21.80;;;13.93;;
24739;SDS011;45234;48.148;17.128;2022-12-10T05:13:57;22.10;;;13.85;;
24739;SDS011;45234;48.148;17.128;2022-12-10T05:16:25;24.33;;;15.50;;
24739;SDS011;45234;48.148;17.128;2022-12-10T05:18:54;24.92;;;15.27;;
24739;SDS011;45234;48.148;17.128;2022-12-10T05:21:21;23.95;;;14.32;;
24739;SDS011;45234;48.148;17.128;2022-12-10T05:23:50;24.33;;;15.57;;
24739;SDS011;45234;48.148;17.128;2022-12-10T05:26:21;25.17;;;15.95;;
24739;SDS011;45234;48.148;17.128;2022-12-10T05:28:51;21.23;;;13.70;;
24739;SDS011;45234;48.148;17.128;2022-12-10T05:31:24;21.63;;;13.93;;
24739;SDS011;45234;48.148;17.128;2022-12-10T05:33:53;21.25;;;13.13;;
24739;SDS011;45234;48.148;17.128;2022-12-10T05:36:22;22.33;;;13.65;;
24739;SDS011;45234;48.148;17.128;2022-12-10T05:38:50;21.85;;;14.18;;
24739;SDS011;45234;48.148;17.128;2022-12-10T05:41:19;27.55;;;15.40;;
24739;SDS011;45234;48.148;17.128;2022-12-10T05:43:47;23.80;;;14.10;;
24739;SDS011;45234;48.148;17.128;2022-12-10T05:46:16;24.35;;;15.80;;
24739;SDS011;45234;48.148;17.128;2022-12-10T05:48:48;26.75;;;16.45;;
24739;SDS011;45234;48.148;17.128;2022-12-10T05:51:17;24.27;;;15.27;;
24739;SDS011;45234;48.148;17.128;2022-12-10T05:53:47;24.10;;;14.85;;
24739;SDS011;45234;48.148;17.128;2022-12-10T05:56:15;25.20;;;15.65;;
24739;SDS011;45234;48.148;17.128;2022-12-10T05:58:46;24.73;;;16.33;;
24739;SDS011;45234;48.148;17.128;2022-12-10T06:01:16;24.70;;;15.95;;
24739;SDS011;45234;48.148;17.128;2022-12-10T06:03:47;26.50;;;16.58;;
24739;SDS011;45234;48.148;17.128;2022-12-10T06:06:19;28.55;;;18.42;;
24739;SDS011;45234;48.148;17.128;2022-12-10T06:08:48;26.05;;;15.82;;
24739;SDS011;45234;48.148;17.128;2022-12-10T06:11:15;28.60;;;16.33;;
24739;SDS011;45234;48.148;17.128;2022-12-10T06:13:42;25.33;;;16.67;;
24739;SDS011;45234;48.148;17.128;2022-12-10T06:16:11;26.17;;;15.77;;
24739;SDS011;45234;48.148;17.128;2022-12-10T06:18:39;23.70;;;15.93;;
24739;SDS011;45234;48.148;17.128;2022-12-10T06:21:07;23.80;;;15.27;;
24739;SDS011;45234;48.148;17.128;2022-12-10T06:23:36;23.85;;;14.98;;
24739;SDS011;45234;48.148;17.128;2022-12-10T06:26:07;25.98;;;15.70;;
24739;SDS011;45234;48.148;17.128;2022-12-10T06:28:38;22.30;;;14.05;;
24739;SDS011;45234;48.148;17.128;2022-12-10T06:31:05;21.27;;;12.90;;
24739;SDS011;45234;48.148;17.128;2022-12-10T06:33:33;18.65;;;12.23;;
24739;SDS011;45234;48.148;17.128;2022-12-10T06:36:03;22.40;;;14.45;;
24739;SDS011;45234;48.148;17.128;2022-12-10T06:38:31;23.23;;;13.95;;
24739;SDS011;45234;48.148;17.128;2022-12-10T06:40:58;21.17;;;14.18;;
24739;SDS011;45234;48.148;17.128;2022-12-10T06:43:28;22.48;;;13.98;;
24739;SDS011;45234;48.148;17.128;2022-12-10T06:45:55;22.70;;;14.18;;
24739;SDS011;45234;48.148;17.128;2022-12-10T06:48:22;21.95;;;14.57;;
24739;SDS011;45234;48.148;17.128;2022-12-10T06:50:49;23.20;;;15.35;;
24739;SDS011;45234;48.148;17.128;2022-12-10T06:53:16;23.88;;;15.00;;
24739;SDS011;45234;48.148;17.128;2022-12-10T06:55:42;21.80;;;14.85;;
24739;SDS011;45234;48.148;17.128;2022-12-10T06:58:09;22.42;;;14.18;;
24739;SDS011;45234;48.148;17.128;2022-12-10T07:00:36;23.98;;;16.15;;
24739;SDS011;45234;48.148;17.128;2022-12-10T07:03:02;27.10;;;16.77;;
24739;SDS011;45234;48.148;17.128;2022-12-10T07:05:30;24.92;;;15.60;;
24739;SDS011;45234;48.148;17.128;2022-12-10T07:07:57;25.20;;;16.15;;
24739;SDS011;45234;48.148;17.128;2022-12-10T07:10:24;24.50;;;15.77;;
24739;SDS011;45234;48.148;17.128;2022-12-10T07:12:51;25.90;;;16.00;;
24739;SDS011;45234;48.148;17.128;2022-12-10T07:15:17;25.65;;;16.83;;
24739;SDS011;45234;48.148;17.128;2022-12-10T07:17:45;25.60;;;17.10;;
24739;SDS011;45234;48.148;17.128;2022-12-10T07:20:11;27.77;;;18.15;;
24739;SDS011;45234;48.148;17.128;2022-12-10T07:22:38;28.48;;;17.75;;
24739;SDS011;45234;48.148;17.128;2022-12-10T07:25:05;30.13;;;16.90;;
24739;SDS011;45234;48.148;17.128;2022-12-10T07:27:32;27.98;;;17.90;;
24739;SDS011;45234;48.148;17.128;2022-12-10T07:29:59;25.83;;;17.13;;
24739;SDS011;45234;48.148;17.128;2022-12-10T07:32:26;29.88;;;18.92;;
24739;SDS011;45234;48.148;17.128;2022-12-10T07:34:54;29.73;;;17.85;;
24739;SDS011;45234;48.148;17.128;2022-12-10T07:37:20;30.48;;;19.00;;
24739;SDS011;45234;48.148;17.128;2022-12-10T07:39:47;29.75;;;17.58;;
24739;SDS011;45234;48.148;17.128;2022-12-10T07:42:14;30.08;;;18.33;;
24739;SDS011;45234;48.148;17.128;2022-12-10T07:44:41;30.90;;;18.30;;
24739;SDS011;45234;48.148;17.128;2022-12-10T07:47:13;28.45;;;18.27;;
24739;SDS011;45234;48.148;17.128;2022-12-10T07:49:40;25.05;;;17.67;;
24739;SDS011;45234;48.148;17.128;2022-12-10T07:52:07;26.42;;;16.95;;
24739;SDS011;45234;48.148;17.128;2022-12-10T07:54:34;25.02;;;16.80;;
24739;SDS011;45234;48.148;17.128;2022-12-10T07:57:01;29.23;;;17.55;;
24739;SDS011;45234;48.148;17.128;2022-12-10T07:59:28;28.00;;;18.08;;
24739;SDS011;45234;48.148;17.128;2022-12-10T08:01:56;27.20;;;16.48;;
24739;SDS011;45234;48.148;17.128;2022-12-10T08:04:29;28.40;;;17.00;;
24739;SDS011;45234;48.148;17.128;2022-12-10T08:06:55;26.13;;;16.58;;
24739;SDS011;45234;48.148;17.128;2022-12-10T08:09:22;26.85;;;15.68;;
24739;SDS011;45234;48.148;17.128;2022-12-10T08:11:49;25.90;;;16.15;;
24739;SDS011;45234;48.148;17.128;2022-12-10T08:14:16;26.42;;;15.95;;
24739;SDS011;45234;48.148;17.128;2022-12-10T08:16:43;24.30;;;16.17;;
24739;SDS011;45234;48.148;17.128;2022-12-10T08:19:10;26.08;;;16.02;;
24739;SDS011;45234;48.148;17.128;2022-12-10T08:21:44;25.20;;;15.90;;
24739;SDS011;45234;48.148;17.128;2022-12-10T08:24:10;24.42;;;16.85;;
24739;SDS011;45234;48.148;17.128;2022-12-10T08:26:37;23.75;;;14.98;;
24739;SDS011;45234;48.148;17.128;2022-12-10T08:29:04;23.05;;;15.25;;
24739;SDS011;45234;48.148;17.128;2022-12-10T08:31:31;26.73;;;16.75;;
24739;SDS011;45234;48.148;17.128;2022-12-10T08:34:02;24.70;;;16.35;;
24739;SDS011;45234;48.148;17.128;2022-12-10T08:36:30;25.02;;;17.30;;
24739;SDS011;45234;48.148;17.128;2022-12-10T08:38:57;27.65;;;16.75;;
24739;SDS011;45234;48.148;17.128;2022-12-10T08:41:24;26.98;;;16.20;;
24739;SDS011;45234;48.148;17.128;2022-12-10T08:43:51;25.70;;;16.45;;
24739;SDS011;45234;48.148;17.128;2022-12-10T08:46:18;23.73;;;15.07;;
24739;SDS011;45234;48.148;17.128;2022-12-10T08:48:46;27.65;;;16.90;;
24739;SDS011;45234;48.148;17.128;2022-12-10T08:51:14;26.55;;;17.95;;
24739;SDS011;45234;48.148;17.128;2022-12-10T08:53:42;25.90;;;16.40;;
24739;SDS011;45234;48.148;17.128;2022-12-10T08:56:10;29.70;;;18.05;;
24739;SDS011;45234;48.148;17.128;2022-12-10T08:58:37;25.83;;;16.77;;
24739;SDS011;45234;48.148;17.128;2022-12-10T09:01:05;28.55;;;18.17;;
24739;SDS011;45234;48.148;17.128;2022-12-10T09:03:33;29.25;;;17.35;;
24739;SDS011;45234;48.148;17.128;2022-12-10T09:06:02;27.73;;;16.98;;
24739;SDS011;45234;48.148;17.128;2022-12-10T09:08:33;23.75;;;14.93;;
24739;SDS011;45234;48.148;17.128;2022-12-10T09:11:04;29.08;;;16.42;;
24739;SDS011;45234;48.148;17.128;2022-12-10T09:13:31;23.98;;;14.93;;
24739;SDS011;45234;48.148;17.128;2022-12-10T09:15:58;21.73;;;14.77;;
24739;SDS011;45234;48.148;17.128;2022-12-10T09:18:25;22.88;;;14.77;;
24739;SDS011;45234;48.148;17.128;2022-12-10T09:20:52;25.90;;;15.88;;
24739;SDS011;45234;48.148;17.128;2022-12-10T09:23:18;26.17;;;15.93;;
24739;SDS011;45234;48.148;17.128;2022-12-10T09:25:45;27.83;;;17.35;;
24739;SDS011;45234;48.148;17.128;2022-12-10T09:28:12;24.33;;;15.68;;
24739;SDS011;45234;48.148;17.128;2022-12-10T09:30:39;29.15;;;18.30;;
24739;SDS011;45234;48.148;17.128;2022-12-10T09:33:06;27.45;;;17.77;;
24739;SDS011;45234;48.148;17.128;2022-12-10T09:35:32;27.08;;;17.35;;
24739;SDS011;45234;48.148;17.128;2022-12-10T09:37:59;28.23;;;16.98;;
24739;SDS011;45234;48.148;17.128;2022-12-10T09:40:39;27.10;;;16.67;;
24739;SDS011;45234;48.148;17.128;2022-12-10T09:43:21;28.58;;;17.92;;
24739;SDS011;45234;48.148;17.128;2022-12-10T09:51:38;27.83;;;17.80;;
24739;SDS011;45234;48.148;17.128;2022-12-10T09:54:11;33.25;;;18.40;;
24739;SDS011;45234;48.148;17.128;2022-12-10T09:56:51;29.05;;;17.90;;
24739;SDS011;45234;48.148;17.128;2022-12-10T09:59:26;27.15;;;17.63;;
24739;SDS011;45234;48.148;17.128;2022-12-10T10:02:02;29.88;;;18.67;;
24739;SDS011;45234;48.148;17.128;2022-12-10T10:04:49;29.10;;;18.63;;
24739;SDS011;45234;48.148;17.128;2022-12-10T10:07:19;29.95;;;19.05;;
24739;SDS011;45234;48.148;17.128;2022-12-10T10:09:49;30.92;;;19.38;;
24739;SDS011;45234;48.148;17.128;2022-12-10T10:12:23;28.08;;;17.10;;
24739;SDS011;45234;48.148;17.128;2022-12-10T10:14:52;30.88;;;19.23;;
24739;SDS011;45234;48.148;17.128;2022-12-10T10:17:20;29.75;;;18.65;;
24739;SDS011;45234;48.148;17.128;2022-12-10T10:20:00;31.73;;;18.90;;
24739;SDS011;45234;48.148;17.128;2022-12-10T10:22:27;27.92;;;18.30;;
24739;SDS011;45234;48.148;17.128;2022-12-10T10:24:55;28.45;;;16.95;;
24739;SDS011;45234;48.148;17.128;2022-12-10T10:27:24;27.70;;;18.17;;
24739;SDS011;45234;48.148;17.128;2022-12-10T10:29:55;31.20;;;18.58;;
24739;SDS011;45234;48.148;17.128;2022-12-10T10:32:26;26.05;;;17.92;;
24739;SDS011;45234;48.148;17.128;2022-12-10T10:35:01;27.48;;;17.67;;
24739;SDS011;45234;48.148;17.128;2022-12-10T10:40:01;29.88;;;17.95;;
24739;SDS011;45234;48.148;17.128;2022-12-10T10:42:36;29.40;;;18.83;;
24739;SDS011;45234;48.148;17.128;2022-12-10T10:45:06;29.20;;;18.20;;
24739;SDS011;45234;48.148;17.128;2022-12-10T10:48:05;28.40;;;18.10;;
24739;SDS011;45234;48.148;17.128;2022-12-10T10:50:36;29.77;;;18.80;;
24739;SDS011;45234;48.148;17.128;2022-12-10T10:56:05;32.25;;;19.70;;
24739;SDS011;45234;48.148;17.128;2022-12-10T10:58:44;30.35;;;18.80;;
24739;SDS011;45234;48.148;17.128;2022-12-10T11:01:18;28.55;;;18.40;;
24739;SDS011;45234;48.148;17.128;2022-12-10T11:03:47;27.65;;;18.00;;
24739;SDS011;45234;48.148;17.128;2022-12-10T11:06:16;29.10;;;17.98;;
24739;SDS011;45234;48.148;17.128;2022-12-10T11:08:45;27.27;;;17.13;;
24739;SDS011;45234;48.148;17.128;2022-12-10T11:11:17;28.95;;;19.08;;
24739;SDS011;45234;48.148;17.128;2022-12-10T11:13:46;28.40;;;19.73;;
24739;SDS011;45234;48.148;17.128;2022-12-10T11:19:02;30.65;;;17.42;;
24739;SDS011;45234;48.148;17.128;2022-12-10T11:21:30;29.33;;;17.45;;
24739;SDS011;45234;48.148;17.128;2022-12-10T11:23:58;29.05;;;17.48;;
24739;SDS011;45234;48.148;17.128;2022-12-10T11:40:46;29.20;;;18.00;;
24739;SDS011;45234;48.148;17.128;2022-12-10T11:56:54;32.40;;;19.17;;
24739;SDS011;45234;48.148;17.128;2022-12-10T12:02:35;30.05;;;17.92;;
24739;SDS011;45234;48.148;17.128;2022-12-10T12:08:22;30.90;;;17.90;;
24739;SDS011;45234;48.148;17.128;2022-12-10T12:17:01;26.98;;;16.75;;
24739;SDS011;45234;48.148;17.128;2022-12-10T12:19:47;28.77;;;16.17;;
24739;SDS011;45234;48.148;17.128;2022-12-10T12:22:23;29.27;;;17.33;;
24739;SDS011;45234;48.148;17.128;2022-12-10T12:24:57;27.73;;;17.27;;
24739;SDS011;45234;48.148;17.128;2022-12-10T12:27:41;29.60;;;17.48;;
24739;SDS011;45234;48.148;17.128;2022-12-10T12:30:14;27.45;;;17.70;;
24739;SDS011;45234;48.148;17.128;2022-12-10T12:35:29;28.42;;;17.55;;
24739;SDS011;45234;48.148;17.128;2022-12-10T12:41:21;30.67;;;17.10;;
24739;SDS011;45234;48.148;17.128;2022-12-10T12:44:04;27.48;;;16.70;;
24739;SDS011;45234;48.148;17.128;2022-12-10T12:46:45;28.17;;;17.10;;
24739;SDS011;45234;48.148;17.128;2022-12-10T12:52:00;28.92;;;17.27;;
24739;SDS011;45234;48.148;17.128;2022-12-10T12:54:41;29.55;;;17.83;;
24739;SDS011;45234;48.148;17.128;2022-12-10T13:00:03;28.92;;;17.50;;
24739;SDS011;45234;48.148;17.128;2022-12-10T13:05:44;28.00;;;16.05;;
24739;SDS011;45234;48.148;17.128;2022-12-10T13:13:28;24.33;;;15.43;;
24739;SDS011;45234;48.148;17.128;2022-12-10T13:19:15;28.23;;;16.63;;
24739;SDS011;45234;48.148;17.128;2022-12-10T13:35:15;27.17;;;16.70;;
24739;SDS011;45234;48.148;17.128;2022-12-10T13:43:23;31.08;;;17.58;;
24739;SDS011;45234;48.148;17.128;2022-12-10T13:46:22;30.65;;;19.10;;
24739;SDS011;45234;48.148;17.128;2022-12-10T13:48:52;28.13;;;16.83;;
24739;SDS011;45234;48.148;17.128;2022-12-10T13:57:05;28.02;;;16.63;;
24739;SDS011;45234;48.148;17.128;2022-12-10T14:05:14;27.60;;;17.08;;
24739;SDS011;45234;48.148;17.128;2022-12-10T14:07:48;29.83;;;17.25;;
24739;SDS011;45234;48.148;17.128;2022-12-10T14:10:19;25.95;;;16.38;;
24739;SDS011;45234;48.148;17.128;2022-12-10T14:12:51;30.08;;;18.33;;
24739;SDS011;45234;48.148;17.128;2022-12-10T14:15:20;29.63;;;16.77;;
24739;SDS011;45234;48.148;17.128;2022-12-10T14:17:59;27.35;;;16.38;;
24739;SDS011;45234;48.148;17.128;2022-12-10T14:20:28;29.10;;;17.52;;
24739;SDS011;45234;48.148;17.128;2022-12-10T14:22:57;25.20;;;16.05;;
24739;SDS011;45234;48.148;17.128;2022-12-10T14:25:48;27.25;;;17.38;;
24739;SDS011;45234;48.148;17.128;2022-12-10T14:28:17;26.08;;;16.63;;
24739;SDS011;45234;48.148;17.128;2022-12-10T14:30:45;30.05;;;18.42;;
24739;SDS011;45234;48.148;17.128;2022-12-10T14:33:18;28.35;;;17.77;;
24739;SDS011;45234;48.148;17.128;2022-12-10T14:35:48;29.02;;;17.88;;
24739;SDS011;45234;48.148;17.128;2022-12-10T14:38:19;30.20;;;18.88;;
24739;SDS011;45234;48.148;17.128;2022-12-10T14:40:49;31.05;;;16.70;;
24739;SDS011;45234;48.148;17.128;2022-12-10T14:43:20;28.15;;;17.05;;
24739;SDS011;45234;48.148;17.128;2022-12-10T14:45:51;26.75;;;16.58;;
24739;SDS011;45234;48.148;17.128;2022-12-10T14:48:22;26.77;;;16.70;;
24739;SDS011;45234;48.148;17.128;2022-12-10T14:50:50;29.08;;;18.08;;
24739;SDS011;45234;48.148;17.128;2022-12-10T14:53:18;29.50;;;16.77;;
24739;SDS011;45234;48.148;17.128;2022-12-10T14:55:54;27.20;;;16.25;;
24739;SDS011;45234;48.148;17.128;2022-12-10T15:01:03;28.33;;;16.20;;
24739;SDS011;45234;48.148;17.128;2022-12-10T15:03:32;30.90;;;17.13;;
24739;SDS011;45234;48.148;17.128;2022-12-10T15:06:07;30.83;;;16.15;;
24739;SDS011;45234;48.148;17.128;2022-12-10T15:08:35;28.67;;;17.08;;
24739;SDS011;45234;48.148;17.128;2022-12-10T15:11:03;30.00;;;18.30;;
24739;SDS011;45234;48.148;17.128;2022-12-10T15:13:35;29.17;;;17.52;;
24739;SDS011;45234;48.148;17.128;2022-12-10T15:16:15;31.48;;;18.23;;
24739;SDS011;45234;48.148;17.128;2022-12-10T15:18:54;32.63;;;17.65;;
24739;SDS011;45234;48.148;17.128;2022-12-10T15:21:31;29.67;;;18.15;;
24739;SDS011;45234;48.148;17.128;2022-12-10T15:24:24;26.38;;;16.27;;
24739;SDS011;45234;48.148;17.128;2022-12-10T15:27:01;32.25;;;17.88;;
24739;SDS011;45234;48.148;17.128;2022-12-10T15:29:39;28.75;;;16.30;;
24739;SDS011;45234;48.148;17.128;2022-12-10T15:32:10;29.25;;;16.05;;
24739;SDS011;45234;48.148;17.128;2022-12-10T15:34:52;31.33;;;16.40;;
24739;SDS011;45234;48.148;17.128;2022-12-10T15:37:23;32.42;;;17.98;;
24739;SDS011;45234;48.148;17.128;2022-12-10T15:39:53;30.58;;;17.45;;
24739;SDS011;45234;48.148;17.128;2022-12-10T15:42:27;31.23;;;16.27;;
24739;SDS011;45234;48.148;17.128;2022-12-10T15:44:58;30.52;;;16.15;;
24739;SDS011;45234;48.148;17.128;2022-12-10T15:47:38;30.33;;;16.08;;
24739;SDS011;45234;48.148;17.128;2022-12-10T15:50:05;28.40;;;16.77;;
24739;SDS011;45234;48.148;17.128;2022-12-10T15:52:32;27.08;;;15.63;;
24739;SDS011;45234;48.148;17.128;2022-12-10T15:55:00;31.35;;;17.70;;
24739;SDS011;45234;48.148;17.128;2022-12-10T15:57:29;31.33;;;16.75;;
24739;SDS011;45234;48.148;17.128;2022-12-10T15:59:59;32.85;;;17.17;;
24739;SDS011;45234;48.148;17.128;2022-12-10T16:02:37;36.58;;;18.55;;
24739;SDS011;45234;48.148;17.128;2022-12-10T16:05:16;31.40;;;17.73;;
24739;SDS011;45234;48.148;17.128;2022-12-10T16:07:44;30.40;;;17.30;;
24739;SDS011;45234;48.148;17.128;2022-12-10T16:10:13;31.73;;;17.65;;
24739;SDS011;45234;48.148;17.128;2022-12-10T16:12:41;36.35;;;18.98;;
24739;SDS011;45234;48.148;17.128;2022-12-10T16:15:11;33.10;;;17.20;;
24739;SDS011;45234;48.148;17.128;2022-12-10T16:17:46;32.33;;;18.10;;
24739;SDS011;45234;48.148;17.128;2022-12-10T16:20:21;34.80;;;18.23;;
24739;SDS011;45234;48.148;17.128;2022-12-10T16:22:48;34.50;;;19.27;;
24739;SDS011;45234;48.148;17.128;2022-12-10T16:25:17;36.58;;;19.40;;
24739;SDS011;45234;48.148;17.128;2022-12-10T16:27:44;33.70;;;18.63;;
24739;SDS011;45234;48.148;17.128;2022-12-10T16:30:13;32.88;;;18.23;;
24739;SDS011;45234;48.148;17.128;2022-12-10T16:32:45;35.30;;;19.05;;
24739;SDS011;45234;48.148;17.128;2022-12-10T16:35:12;31.42;;;17.67;;
24739;SDS011;45234;48.148;17.128;2022-12-10T16:37:41;38.50;;;21.40;;
24739;SDS011;45234;48.148;17.128;2022-12-10T16:40:12;38.55;;;18.92;;